sensor_id;sensor_type;location;lat;lon;timestamp;pressure;altitude;pressure_sealevel;temperature;humidity
53011;BME280;42803;55.762;38.084;2023-08-30T00:01:43;99422.66;;;13.76;100.00
53011;BME280;42803;55.762;38.084;2023-08-30T00:04:12;99427.91;;;13.76;100.00
53011;BME280;42803;55.762;38.084;2023-08-30T00:06:41;99422.47;;;13.73;100.00
53011;BME280;42803;55.762;38.084;2023-08-30T00:09:10;99420.66;;;13.72;100.00
53011;BME280;42803;55.762;38.084;2023-08-30T00:11:42;99415.41;;;13.72;100.00
53011;BME280;42803;55.762;38.084;2023-08-30T00:14:11;99419.84;;;13.73;100.00
53011;BME280;42803;55.762;38.084;2023-08-30T00:16:40;99409.19;;;13.70;100.00
53011;BME280;42803;55.762;38.084;2023-08-30T00:19:09;99412.78;;;13.72;100.00
53011;BME280;42803;55.762;38.084;2023-08-30T00:21:38;99411.78;;;13.70;100.00
53011;BME280;42803;55.762;38.084;2023-08-30T00:24:07;99408.34;;;13.71;100.00
53011;BME280;42803;55.762;38.084;2023-08-30T00:26:36;99411.59;;;13.67;100.00
53011;BME280;42803;55.762;38.084;2023-08-30T00:29:07;99408.97;;;13.67;100.00
53011;BME280;42803;55.762;38.084;2023-08-30T00:31:37;99412.50;;;13.68;100.00
53011;BME280;42803;55.762;38.084;2023-08-30T00:34:06;99415.81;;;13.65;100.00
53011;BME280;42803;55.762;38.084;2023-08-30T00:36:36;99417.66;;;13.66;100.00
53011;BME280;42803;55.762;38.084;2023-08-30T00:39:05;99413.19;;;13.65;100.00
53011;BME280;42803;55.762;38.084;2023-08-30T00:41:34;99421.88;;;13.64;100.00
53011;BME280;42803;55.762;38.084;2023-08-30T00:44:03;99422.78;;;13.64;100.00
53011;BME280;42803;55.762;38.084;2023-08-30T00:46:35;99419.25;;;13.64;100.00
53011;BME280;42803;55.762;38.084;2023-08-30T00:49:06;99418.44;;;13.65;100.00
53011;BME280;42803;55.762;38.084;2023-08-30T00:51:36;99424.44;;;13.62;100.00
53011;BME280;42803;55.762;38.084;2023-08-30T00:54:06;99428.72;;;13.62;100.00
53011;BME280;42803;55.762;38.084;2023-08-30T00:56:35;99425.94;;;13.59;100.00
53011;BME280;42803;55.762;38.084;2023-08-30T00:59:04;99418.78;;;13.56;100.00
53011;BME280;42803;55.762;38.084;2023-08-30T01:01:35;99421.47;;;13.58;100.00
53011;BME280;42803;55.762;38.084;2023-08-30T01:04:04;99428.44;;;13.57;100.00
53011;BME280;42803;55.762;38.084;2023-08-30T01:06:33;99429.97;;;13.54;100.00
53011;BME280;42803;55.762;38.084;2023-08-30T01:09:03;99431.81;;;13.55;100.00
53011;BME280;42803;55.762;38.084;2023-08-30T01:11:39;99429.97;;;13.54;100.00
53011;BME280;42803;55.762;38.084;2023-08-30T01:14:14;99430.78;;;13.53;100.00
53011;BME280;42803;55.762;38.084;2023-08-30T01:16:48;99434.22;;;13.52;100.00
53011;BME280;42803;55.762;38.084;2023-08-30T01:19:45;99438.44;;;13.50;100.00
53011;BME280;42803;55.762;38.084;2023-08-30T01:22:20;99440.78;;;13.45;100.00
53011;BME280;42803;55.762;38.084;2023-08-30T01:25:00;99449.66;;;13.47;100.00
53011;BME280;42803;55.762;38.084;2023-08-30T01:27:33;99440.88;;;13.47;100.00
53011;BME280;42803;55.762;38.084;2023-08-30T01:30:06;99444.31;;;13.46;100.00
53011;BME280;42803;55.762;38.084;2023-08-30T01:32:37;99451.34;;;13.47;100.00
53011;BME280;42803;55.762;38.084;2023-08-30T01:35:08;99457.34;;;13.44;100.00
53011;BME280;42803;55.762;38.084;2023-08-30T01:37:39;99452.16;;;13.46;100.00
53011;BME280;42803;55.762;38.084;2023-08-30T01:40:10;99456.50;;;13.45;100.00
53011;BME280;42803;55.762;38.084;2023-08-30T01:42:42;99449.47;;;13.44;100.00
53011;BME280;42803;55.762;38.084;2023-08-30T01:45:13;99460.56;;;13.40;100.00
53011;BME280;42803;55.762;38.084;2023-08-30T01:47:43;99459.44;;;13.36;100.00
53011;BME280;42803;55.762;38.084;2023-08-30T01:50:15;99462.84;;;13.35;100.00
53011;BME280;42803;55.762;38.084;2023-08-30T01:52:45;99457.53;;;13.34;100.00
53011;BME280;42803;55.762;38.084;2023-08-30T01:55:14;99460.16;;;13.34;100.00
53011;BME280;42803;55.762;38.084;2023-08-30T01:57:45;99469.72;;;13.33;100.00
53011;BME280;42803;55.762;38.084;2023-08-30T02:00:15;99468.00;;;13.34;100.00
53011;BME280;42803;55.762;38.084;2023-08-30T02:02:44;99477.38;;;13.30;100.00
53011;BME280;42803;55.762;38.084;2023-08-30T02:05:13;99470.34;;;13.29;100.00
53011;BME280;42803;55.762;38.084;2023-08-30T02:07:48;99473.06;;;13.31;100.00
53011;BME280;42803;55.762;38.084;2023-08-30T02:10:22;99466.91;;;13.30;100.00
53011;BME280;42803;55.762;38.084;2023-08-30T02:12:54;99469.66;;;13.32;100.00
53011;BME280;42803;55.762;38.084;2023-08-30T02:15:25;99467.03;;;13.32;100.00
53011;BME280;42803;55.762;38.084;2023-08-30T02:17:59;99471.75;;;13.37;100.00
53011;BME280;42803;55.762;38.084;2023-08-30T02:20:29;99463.19;;;13.40;100.00
53011;BME280;42803;55.762;38.084;2023-08-30T02:22:58;99463.19;;;13.40;100.00
53011;BME280;42803;55.762;38.084;2023-08-30T02:25:41;99460.44;;;13.38;100.00
53011;BME280;42803;55.762;38.084;2023-08-30T02:28:11;99457.81;;;13.38;100.00
53011;BME280;42803;55.762;38.084;2023-08-30T02:30:40;99454.41;;;13.39;100.00
53011;BME280;42803;55.762;38.084;2023-08-30T02:33:09;99456.84;;;13.36;100.00
53011;BME280;42803;55.762;38.084;2023-08-30T02:35:41;99462.78;;;13.34;100.00
53011;BME280;42803;55.762;38.084;2023-08-30T02:38:11;99473.94;;;13.31;100.00
53011;BME280;42803;55.762;38.084;2023-08-30T02:40:41;99472.16;;;13.30;100.00
53011;BME280;42803;55.762;38.084;2023-08-30T02:43:12;99473.06;;;13.31;100.00
53011;BME280;42803;55.762;38.084;2023-08-30T02:45:41;99470.72;;;13.35;100.00
53011;BME280;42803;55.762;38.084;2023-08-30T02:48:12;99466.59;;;13.39;100.00
53011;BME280;42803;55.762;38.084;2023-08-30T02:50:41;99465.00;;;13.41;100.00
53011;BME280;42803;55.762;38.084;2023-08-30T02:53:10;99467.00;;;13.45;100.00
53011;BME280;42803;55.762;38.084;2023-08-30T02:55:39;99469.81;;;13.48;100.00
53011;BME280;42803;55.762;38.084;2023-08-30T02:58:08;99467.41;;;13.51;100.00
53011;BME280;42803;55.762;38.084;2023-08-30T03:00:40;99474.38;;;13.51;100.00
53011;BME280;42803;55.762;38.084;2023-08-30T03:03:10;99473.56;;;13.52;100.00
53011;BME280;42803;55.762;38.084;2023-08-30T03:05:39;99477.78;;;13.50;100.00
53011;BME280;42803;55.762;38.084;2023-08-30T03:08:08;99478.59;;;13.49;100.00
53011;BME280;42803;55.762;38.084;2023-08-30T03:10:38;99479.41;;;13.48;100.00
53011;BME280;42803;55.762;38.084;2023-08-30T03:13:08;99477.78;;;13.50;100.00
53011;BME280;42803;55.762;38.084;2023-08-30T03:15:37;99468.19;;;13.50;100.00
53011;BME280;42803;55.762;38.084;2023-08-30T03:18:08;99472.66;;;13.51;100.00
53011;BME280;42803;55.762;38.084;2023-08-30T03:20:38;99478.81;;;13.52;100.00
53011;BME280;42803;55.762;38.084;2023-08-30T03:23:07;99466.38;;;13.49;100.00
53011;BME280;42803;55.762;38.084;2023-08-30T03:25:37;99473.34;;;13.49;100.00
53011;BME280;42803;55.762;38.084;2023-08-30T03:28:06;99469.00;;;13.49;100.00
53011;BME280;42803;55.762;38.084;2023-08-30T03:30:35;99468.31;;;13.52;100.00
53011;BME280;42803;55.762;38.084;2023-08-30T03:33:04;99469.91;;;13.50;100.00
53011;BME280;42803;55.762;38.084;2023-08-30T03:35:35;99474.94;;;13.47;100.00
53011;BME280;42803;55.762;38.084;2023-08-30T03:38:05;99473.75;;;13.55;100.00
53011;BME280;42803;55.762;38.084;2023-08-30T03:40:35;99479.09;;;13.56;100.00
53011;BME280;42803;55.762;38.084;2023-08-30T03:43:05;99482.81;;;13.60;100.00
53011;BME280;42803;55.762;38.084;2023-08-30T03:45:35;99476.97;;;13.64;100.00
53011;BME280;42803;55.762;38.084;2023-08-30T03:48:05;99481.69;;;13.70;100.00
53011;BME280;42803;55.762;38.084;2023-08-30T03:50:36;99476.63;;;13.73;100.00
53011;BME280;42803;55.762;38.084;2023-08-30T03:53:07;99478.56;;;13.75;100.00
53011;BME280;42803;55.762;38.084;2023-08-30T03:55:36;99468.03;;;13.88;100.00
53011;BME280;42803;55.762;38.084;2023-08-30T03:58:05;99466.81;;;13.97;100.00
53011;BME280;42803;55.762;38.084;2023-08-30T04:00:36;99460.56;;;13.95;100.00
53011;BME280;42803;55.762;38.084;2023-08-30T04:03:08;99474.50;;;13.94;100.00
53011;BME280;42803;55.762;38.084;2023-08-30T04:05:40;99473.44;;;14.05;100.00
53011;BME280;42803;55.762;38.084;2023-08-30T04:08:09;99474.72;;;14.11;100.00
53011;BME280;42803;55.762;38.084;2023-08-30T04:10:40;99468.69;;;14.12;100.00
53011;BME280;42803;55.762;38.084;2023-08-30T04:13:09;99476.91;;;14.19;100.00
53011;BME280;42803;55.762;38.084;2023-08-30T04:15:39;99477.03;;;14.20;100.00
53011;BME280;42803;55.762;38.084;2023-08-30T04:18:09;99476.00;;;14.18;100.00
53011;BME280;42803;55.762;38.084;2023-08-30T04:20:45;99480.91;;;14.12;100.00
53011;BME280;42803;55.762;38.084;2023-08-30T04:23:14;99475.66;;;14.12;100.00
53011;BME280;42803;55.762;38.084;2023-08-30T04:25:44;99481.19;;;14.17;100.00
53011;BME280;42803;55.762;38.084;2023-08-30T04:28:13;99488.31;;;14.19;100.00
53011;BME280;42803;55.762;38.084;2023-08-30T04:30:42;99480.44;;;14.19;100.00
53011;BME280;42803;55.762;38.084;2023-08-30T04:33:12;99480.38;;;14.18;100.00
53011;BME280;42803;55.762;38.084;2023-08-30T04:35:41;99475.47;;;14.09;100.00
53011;BME280;42803;55.762;38.084;2023-08-30T04:38:14;99472.56;;;14.04;100.00
53011;BME280;42803;55.762;38.084;2023-08-30T04:40:44;99478.69;;;14.05;100.00
53011;BME280;42803;55.762;38.084;2023-08-30T04:43:14;99485.13;;;14.10;100.00
53011;BME280;42803;55.762;38.084;2023-08-30T04:45:43;99488.47;;;14.07;100.00
53011;BME280;42803;55.762;38.084;2023-08-30T04:48:16;99490.38;;;14.10;100.00
53011;BME280;42803;55.762;38.084;2023-08-30T04:50:45;99484.31;;;14.11;100.00
53011;BME280;42803;55.762;38.084;2023-08-30T04:53:16;99484.72;;;14.17;100.00
53011;BME280;42803;55.762;38.084;2023-08-30T04:55:45;99483.66;;;14.28;100.00
53011;BME280;42803;55.762;38.084;2023-08-30T04:58:14;99485.84;;;14.35;100.00
53011;BME280;42803;55.762;38.084;2023-08-30T05:00:43;99492.91;;;14.36;100.00
53011;BME280;42803;55.762;38.084;2023-08-30T05:03:13;99485.13;;;14.38;100.00
53011;BME280;42803;55.762;38.084;2023-08-30T05:05:45;99491.03;;;14.49;100.00
53011;BME280;42803;55.762;38.084;2023-08-30T05:08:17;99483.16;;;14.49;100.00
53011;BME280;42803;55.762;38.084;2023-08-30T05:10:48;99488.97;;;14.43;100.00
53011;BME280;42803;55.762;38.084;2023-08-30T05:13:18;99502.59;;;14.51;100.00
53011;BME280;42803;55.762;38.084;2023-08-30T05:15:47;99505.63;;;14.44;100.00
53011;BME280;42803;55.762;38.084;2023-08-30T05:18:18;99498.38;;;14.39;100.00
53011;BME280;42803;55.762;38.084;2023-08-30T05:20:49;99500.56;;;14.47;100.00
53011;BME280;42803;55.762;38.084;2023-08-30T05:23:19;99493.91;;;14.52;100.00
53011;BME280;42803;55.762;38.084;2023-08-30T05:25:49;99497.34;;;14.51;100.00
53011;BME280;42803;55.762;38.084;2023-08-30T05:28:18;99492.63;;;14.60;100.00
53011;BME280;42803;55.762;38.084;2023-08-30T05:30:47;99489.81;;;14.57;100.00
53011;BME280;42803;55.762;38.084;2023-08-30T05:33:37;99485.13;;;14.66;100.00
53011;BME280;42803;55.762;38.084;2023-08-30T05:36:22;99475.56;;;14.81;100.00
53011;BME280;42803;55.762;38.084;2023-08-30T05:39:05;99473.00;;;14.83;100.00
53011;BME280;42803;55.762;38.084;2023-08-30T05:41:37;99458.06;;;14.97;100.00
53011;BME280;42803;55.762;38.084;2023-08-30T05:44:07;99455.25;;;14.94;100.00
53011;BME280;42803;55.762;38.084;2023-08-30T05:46:39;99454.69;;;14.99;100.00
53011;BME280;42803;55.762;38.084;2023-08-30T05:49:09;99467.13;;;15.02;100.00
53011;BME280;42803;55.762;38.084;2023-08-30T05:51:38;99461.47;;;15.10;100.00
53011;BME280;42803;55.762;38.084;2023-08-30T05:54:08;99470.19;;;15.24;100.00
53011;BME280;42803;55.762;38.084;2023-08-30T05:56:38;99468.06;;;15.33;100.00
53011;BME280;42803;55.762;38.084;2023-08-30T05:59:07;99470.38;;;15.27;100.00
53011;BME280;42803;55.762;38.084;2023-08-30T06:01:36;99480.06;;;15.14;100.00
53011;BME280;42803;55.762;38.084;2023-08-30T06:04:05;99492.50;;;15.01;100.00
53011;BME280;42803;55.762;38.084;2023-08-30T06:06:34;99504.94;;;15.04;100.00
53011;BME280;42803;55.762;38.084;2023-08-30T06:09:04;99508.53;;;15.06;100.00
53011;BME280;42803;55.762;38.084;2023-08-30T06:11:34;99502.31;;;15.04;100.00
53011;BME280;42803;55.762;38.084;2023-08-30T06:14:04;99490.13;;;15.06;100.00
53011;BME280;42803;55.762;38.084;2023-08-30T06:16:33;99502.13;;;15.16;100.00
53011;BME280;42803;55.762;38.084;2023-08-30T06:19:06;99497.75;;;15.16;100.00
53011;BME280;42803;55.762;38.084;2023-08-30T06:21:35;99499.75;;;15.20;100.00
53011;BME280;42803;55.762;38.084;2023-08-30T06:24:04;99500.91;;;15.25;100.00
53011;BME280;42803;55.762;38.084;2023-08-30T06:26:35;99503.91;;;15.46;100.00
53011;BME280;42803;55.762;38.084;2023-08-30T06:29:04;99510.56;;;15.56;100.00
53011;BME280;42803;55.762;38.084;2023-08-30T06:31:33;99510.72;;;15.89;100.00
53011;BME280;42803;55.762;38.084;2023-08-30T06:34:02;99508.78;;;16.17;100.00
53011;BME280;42803;55.762;38.084;2023-08-30T06:36:32;99511.94;;;16.43;100.00
53011;BME280;42803;55.762;38.084;2023-08-30T06:39:01;99509.28;;;16.59;100.00
53011;BME280;42803;55.762;38.084;2023-08-30T06:41:30;99503.75;;;17.03;99.01
53011;BME280;42803;55.762;38.084;2023-08-30T06:44:01;99500.88;;;17.33;97.00
53011;BME280;42803;55.762;38.084;2023-08-30T06:46:31;99502.28;;;17.62;94.30
53011;BME280;42803;55.762;38.084;2023-08-30T06:49:00;99500.22;;;17.91;92.97
53011;BME280;42803;55.762;38.084;2023-08-30T06:51:29;99485.06;;;17.87;92.56
53011;BME280;42803;55.762;38.084;2023-08-30T06:53:58;99482.44;;;18.06;91.11
53011;BME280;42803;55.762;38.084;2023-08-30T06:56:28;99492.31;;;18.10;89.67
53011;BME280;42803;55.762;38.084;2023-08-30T06:58:57;99500.81;;;17.85;89.31
53011;BME280;42803;55.762;38.084;2023-08-30T07:01:27;99507.19;;;18.08;89.15
53011;BME280;42803;55.762;38.084;2023-08-30T07:03:57;99511.69;;;18.29;88.62
53011;BME280;42803;55.762;38.084;2023-08-30T07:06:26;99515.03;;;18.44;86.69
53011;BME280;42803;55.762;38.084;2023-08-30T07:08:58;99510.06;;;18.89;85.49
53011;BME280;42803;55.762;38.084;2023-08-30T07:11:27;99504.81;;;19.11;86.34
53011;BME280;42803;55.762;38.084;2023-08-30T07:14:02;99507.22;;;19.05;84.48
53011;BME280;42803;55.762;38.084;2023-08-30T07:16:32;99514.50;;;18.70;83.43
53011;BME280;42803;55.762;38.084;2023-08-30T07:19:02;99515.56;;;18.74;84.16
53011;BME280;42803;55.762;38.084;2023-08-30T07:21:31;99503.34;;;19.18;81.79
53011;BME280;42803;55.762;38.084;2023-08-30T07:24:05;99504.66;;;18.68;84.01
53011;BME280;42803;55.762;38.084;2023-08-30T07:26:34;99518.00;;;17.95;86.45
53011;BME280;42803;55.762;38.084;2023-08-30T07:29:04;99516.25;;;17.42;88.75
53011;BME280;42803;55.762;38.084;2023-08-30T07:31:35;99515.63;;;17.29;90.24
53011;BME280;42803;55.762;38.084;2023-08-30T07:34:04;99514.97;;;17.34;90.34
53011;BME280;42803;55.762;38.084;2023-08-30T07:36:33;99519.34;;;17.51;89.12
53011;BME280;42803;55.762;38.084;2023-08-30T07:39:14;99508.88;;;17.88;88.00
53011;BME280;42803;55.762;38.084;2023-08-30T07:41:44;99514.63;;;17.80;87.16
53011;BME280;42803;55.762;38.084;2023-08-30T07:44:13;99505.16;;;18.02;87.01
53011;BME280;42803;55.762;38.084;2023-08-30T07:46:44;99497.94;;;18.36;86.23
53011;BME280;42803;55.762;38.084;2023-08-30T07:49:13;99496.69;;;18.47;86.48
53011;BME280;42803;55.762;38.084;2023-08-30T07:51:42;99497.72;;;18.70;84.18
53011;BME280;42803;55.762;38.084;2023-08-30T07:54:12;99511.94;;;18.54;83.49
53011;BME280;42803;55.762;38.084;2023-08-30T07:56:41;99508.75;;;18.61;84.65
53011;BME280;42803;55.762;38.084;2023-08-30T07:59:10;99525.84;;;18.31;84.84
53011;BME280;42803;55.762;38.084;2023-08-30T08:01:40;99523.91;;;18.26;85.74
53011;BME280;42803;55.762;38.084;2023-08-30T08:04:11;99527.25;;;18.42;84.46
53011;BME280;42803;55.762;38.084;2023-08-30T08:06:40;99535.69;;;18.15;84.74
53011;BME280;42803;55.762;38.084;2023-08-30T08:09:23;99535.53;;;18.30;85.35
53011;BME280;42803;55.762;38.084;2023-08-30T08:11:52;99529.91;;;18.42;85.23
53011;BME280;42803;55.762;38.084;2023-08-30T08:14:24;99528.94;;;18.59;84.69
53011;BME280;42803;55.762;38.084;2023-08-30T08:16:53;99536.34;;;18.86;82.94
53011;BME280;42803;55.762;38.084;2023-08-30T08:19:24;99535.09;;;18.97;81.90
53011;BME280;42803;55.762;38.084;2023-08-30T08:21:53;99534.59;;;18.67;81.82
53011;BME280;42803;55.762;38.084;2023-08-30T08:24:23;99527.19;;;18.78;82.92
53011;BME280;42803;55.762;38.084;2023-08-30T08:26:52;99528.69;;;18.72;82.14
53011;BME280;42803;55.762;38.084;2023-08-30T08:29:21;99533.25;;;18.96;81.61
53011;BME280;42803;55.762;38.084;2023-08-30T08:31:50;99532.13;;;19.10;79.90
53011;BME280;42803;55.762;38.084;2023-08-30T08:34:19;99535.31;;;19.22;78.75
53011;BME280;42803;55.762;38.084;2023-08-30T08:36:53;99535.44;;;19.26;79.51
53011;BME280;42803;55.762;38.084;2023-08-30T08:39:23;99543.78;;;19.35;78.19
53011;BME280;42803;55.762;38.084;2023-08-30T08:42:03;99541.81;;;19.10;79.20
53011;BME280;42803;55.762;38.084;2023-08-30T08:44:36;99539.38;;;19.56;80.51
53011;BME280;42803;55.762;38.084;2023-08-30T08:47:08;99545.00;;;19.62;79.54
53011;BME280;42803;55.762;38.084;2023-08-30T08:49:47;99554.66;;;19.83;79.12
53011;BME280;42803;55.762;38.084;2023-08-30T08:52:19;99553.34;;;19.94;78.42
53011;BME280;42803;55.762;38.084;2023-08-30T08:55:00;99556.44;;;19.84;79.35
53011;BME280;42803;55.762;38.084;2023-08-30T08:57:32;99552.09;;;19.84;78.16
53011;BME280;42803;55.762;38.084;2023-08-30T09:00:02;99547.47;;;19.80;78.11
53011;BME280;42803;55.762;38.084;2023-08-30T09:02:36;99559.94;;;19.83;76.93
53011;BME280;42803;55.762;38.084;2023-08-30T09:05:06;99560.53;;;20.19;76.68
53011;BME280;42803;55.762;38.084;2023-08-30T09:07:37;99567.38;;;20.57;75.51
53011;BME280;42803;55.762;38.084;2023-08-30T09:10:07;99567.22;;;20.77;73.09
53011;BME280;42803;55.762;38.084;2023-08-30T09:12:37;99560.59;;;20.43;72.70
53011;BME280;42803;55.762;38.084;2023-08-30T09:15:07;99564.56;;;20.32;74.02
53011;BME280;42803;55.762;38.084;2023-08-30T09:17:36;99566.13;;;20.04;75.56
53011;BME280;42803;55.762;38.084;2023-08-30T09:20:13;99562.75;;;20.08;74.93
53011;BME280;42803;55.762;38.084;2023-08-30T09:22:49;99569.81;;;20.30;74.64
53011;BME280;42803;55.762;38.084;2023-08-30T09:25:26;99573.00;;;20.44;74.89
53011;BME280;42803;55.762;38.084;2023-08-30T09:27:59;99574.66;;;20.87;74.27
53011;BME280;42803;55.762;38.084;2023-08-30T09:30:28;99577.38;;;20.88;72.96
53011;BME280;42803;55.762;38.084;2023-08-30T09:33:04;99580.53;;;21.02;72.81
53011;BME280;42803;55.762;38.084;2023-08-30T09:35:43;99584.03;;;21.01;73.12
53011;BME280;42803;55.762;38.084;2023-08-30T09:38:18;99579.81;;;21.06;71.72
53011;BME280;42803;55.762;38.084;2023-08-30T09:40:47;99577.09;;;20.81;72.49
53011;BME280;42803;55.762;38.084;2023-08-30T09:43:19;99581.44;;;20.79;71.73
53011;BME280;42803;55.762;38.084;2023-08-30T09:45:50;99586.56;;;20.98;72.01
53011;BME280;42803;55.762;38.084;2023-08-30T09:48:21;99576.25;;;20.82;70.97
53011;BME280;42803;55.762;38.084;2023-08-30T09:50:53;99581.75;;;20.64;71.04
53011;BME280;42803;55.762;38.084;2023-08-30T09:53:26;99581.94;;;20.68;71.55
53011;BME280;42803;55.762;38.084;2023-08-30T09:55:59;99580.84;;;20.63;71.21
53011;BME280;42803;55.762;38.084;2023-08-30T09:58:29;99585.50;;;20.69;71.02
53011;BME280;42803;55.762;38.084;2023-08-30T10:01:00;99579.13;;;21.12;70.16
53011;BME280;42803;55.762;38.084;2023-08-30T10:03:31;99572.88;;;21.34;68.41
53011;BME280;42803;55.762;38.084;2023-08-30T10:06:03;99577.34;;;21.60;69.02
53011;BME280;42803;55.762;38.084;2023-08-30T10:08:36;99574.13;;;21.98;67.18
53011;BME280;42803;55.762;38.084;2023-08-30T10:11:07;99581.03;;;21.91;67.92
53011;BME280;42803;55.762;38.084;2023-08-30T10:13:41;99583.84;;;21.70;68.23
53011;BME280;42803;55.762;38.084;2023-08-30T10:16:15;99591.72;;;20.69;68.77
53011;BME280;42803;55.762;38.084;2023-08-30T10:18:50;99587.84;;;20.61;70.09
53011;BME280;42803;55.762;38.084;2023-08-30T10:21:32;99586.16;;;20.63;70.81
53011;BME280;42803;55.762;38.084;2023-08-30T10:24:06;99584.47;;;20.65;71.30
53011;BME280;42803;55.762;38.084;2023-08-30T10:26:56;99592.91;;;20.55;72.11
53011;BME280;42803;55.762;38.084;2023-08-30T10:29:28;99592.16;;;20.58;72.49
53011;BME280;42803;55.762;38.084;2023-08-30T10:32:05;99593.47;;;20.69;72.09
53011;BME280;42803;55.762;38.084;2023-08-30T10:34:35;99597.13;;;21.21;70.43
53011;BME280;42803;55.762;38.084;2023-08-30T10:37:08;99582.19;;;21.48;69.16
53011;BME280;42803;55.762;38.084;2023-08-30T10:39:40;99594.31;;;20.92;69.64
53011;BME280;42803;55.762;38.084;2023-08-30T10:42:10;99596.41;;;20.77;71.06
53011;BME280;42803;55.762;38.084;2023-08-30T10:44:47;99593.63;;;20.98;70.73
53011;BME280;42803;55.762;38.084;2023-08-30T10:47:38;99583.63;;;21.89;68.61
53011;BME280;42803;55.762;38.084;2023-08-30T10:50:09;99579.63;;;22.29;66.90
53011;BME280;42803;55.762;38.084;2023-08-30T10:52:39;99580.91;;;22.71;65.87
53011;BME280;42803;55.762;38.084;2023-08-30T10:55:14;99573.72;;;23.28;64.78
53011;BME280;42803;55.762;38.084;2023-08-30T10:57:45;99580.88;;;22.99;64.33
53011;BME280;42803;55.762;38.084;2023-08-30T11:00:19;99588.13;;;22.75;64.94
53011;BME280;42803;55.762;38.084;2023-08-30T11:03:02;99573.91;;;22.44;65.16
53011;BME280;42803;55.762;38.084;2023-08-30T11:05:40;99573.88;;;22.16;65.74
53011;BME280;42803;55.762;38.084;2023-08-30T11:08:14;99569.88;;;21.76;67.74
53011;BME280;42803;55.762;38.084;2023-08-30T11:10:45;99573.06;;;21.40;68.71
53011;BME280;42803;55.762;38.084;2023-08-30T11:13:19;99577.38;;;20.64;70.39
53011;BME280;42803;55.762;38.084;2023-08-30T11:15:50;99580.81;;;20.41;71.89
53011;BME280;42803;55.762;38.084;2023-08-30T11:18:20;99572.47;;;20.53;72.23
53011;BME280;42803;55.762;38.084;2023-08-30T11:20:54;99571.50;;;20.97;70.38
53011;BME280;42803;55.762;38.084;2023-08-30T11:23:27;99566.00;;;21.16;69.42
53011;BME280;42803;55.762;38.084;2023-08-30T11:25:58;99575.63;;;21.62;68.84
53011;BME280;42803;55.762;38.084;2023-08-30T11:28:27;99568.13;;;21.76;68.05
53011;BME280;42803;55.762;38.084;2023-08-30T11:30:56;99569.22;;;22.10;67.31
53011;BME280;42803;55.762;38.084;2023-08-30T11:33:25;99565.03;;;22.17;66.80
53011;BME280;42803;55.762;38.084;2023-08-30T11:35:55;99567.50;;;22.39;65.73
53011;BME280;42803;55.762;38.084;2023-08-30T11:38:24;99572.66;;;22.06;66.50
53011;BME280;42803;55.762;38.084;2023-08-30T11:40:53;99563.31;;;21.64;67.46
53011;BME280;42803;55.762;38.084;2023-08-30T11:43:25;99566.75;;;21.12;69.86
53011;BME280;42803;55.762;38.084;2023-08-30T11:45:56;99572.84;;;20.62;70.28
53011;BME280;42803;55.762;38.084;2023-08-30T11:48:26;99577.97;;;20.35;72.19
53011;BME280;42803;55.762;38.084;2023-08-30T11:50:56;99577.16;;;20.37;71.90
53011;BME280;42803;55.762;38.084;2023-08-30T11:53:26;99573.00;;;20.44;71.38
53011;BME280;42803;55.762;38.084;2023-08-30T11:55:55;99572.81;;;20.84;70.69
53011;BME280;42803;55.762;38.084;2023-08-30T11:58:26;99580.03;;;21.12;68.67
53011;BME280;42803;55.762;38.084;2023-08-30T12:00:56;99566.25;;;21.23;68.96
53011;BME280;42803;55.762;38.084;2023-08-30T12:03:26;99568.84;;;21.45;68.01
53011;BME280;42803;55.762;38.084;2023-08-30T12:05:57;99566.13;;;21.20;67.98
53011;BME280;42803;55.762;38.084;2023-08-30T12:08:28;99565.28;;;21.45;67.91
53011;BME280;42803;55.762;38.084;2023-08-30T12:10:58;99565.63;;;21.30;67.80
53011;BME280;42803;55.762;38.084;2023-08-30T12:13:31;99571.94;;;21.09;68.54
53011;BME280;42803;55.762;38.084;2023-08-30T12:16:02;99560.59;;;21.13;68.98
53011;BME280;42803;55.762;38.084;2023-08-30T12:18:33;99562.66;;;21.46;68.28
53011;BME280;42803;55.762;38.084;2023-08-30T12:21:03;99561.28;;;21.57;67.78
53011;BME280;42803;55.762;38.084;2023-08-30T12:23:33;99558.66;;;21.84;67.79
53011;BME280;42803;55.762;38.084;2023-08-30T12:26:04;99560.81;;;21.96;67.10
53011;BME280;42803;55.762;38.084;2023-08-30T12:28:36;99556.13;;;21.89;66.37
53011;BME280;42803;55.762;38.084;2023-08-30T12:31:07;99569.16;;;21.54;66.74
53011;BME280;42803;55.762;38.084;2023-08-30T12:33:37;99563.53;;;21.45;67.38
53011;BME280;42803;55.762;38.084;2023-08-30T12:36:08;99553.28;;;21.32;68.09
53011;BME280;42803;55.762;38.084;2023-08-30T12:38:37;99551.25;;;21.25;68.22
53011;BME280;42803;55.762;38.084;2023-08-30T12:41:07;99536.03;;;21.19;69.58
53011;BME280;42803;55.762;38.084;2023-08-30T12:43:37;99532.75;;;21.02;69.28
53011;BME280;42803;55.762;38.084;2023-08-30T12:46:09;99525.38;;;20.69;70.29
53011;BME280;42803;55.762;38.084;2023-08-30T12:48:39;99529.56;;;20.63;70.53
53011;BME280;42803;55.762;38.084;2023-08-30T12:51:08;99524.81;;;20.54;70.43
53011;BME280;42803;55.762;38.084;2023-08-30T12:53:38;99507.75;;;20.25;71.67
53011;BME280;42803;55.762;38.084;2023-08-30T12:56:07;99503.47;;;20.29;71.43
53011;BME280;42803;55.762;38.084;2023-08-30T12:58:38;99504.47;;;20.08;71.76
53011;BME280;42803;55.762;38.084;2023-08-30T13:01:07;99503.25;;;20.23;72.91
53011;BME280;42803;55.762;38.084;2023-08-30T13:03:37;99497.41;;;20.31;73.40
53011;BME280;42803;55.762;38.084;2023-08-30T13:06:06;99503.47;;;20.29;72.08